CLG3 weather

Liege / CNRL Airport
Liege, Alberta, Canada

Public forecast

Using degrees Celsius for public forecast. Weather courtesy of forecast.io.

METAR (pilot weather report)

Closest report is Fort McMurray Airport, 68.1 nm (126.1 km) ESE. Retrieved 2019/08/24 03:00 UTC (55 minutes ago):

CYMM 240300Z AUTO 14011KT 9SM OVC100 16/10 A2973 RMK SLP078 DENSITY ALT 1700FT

TAF (pilot weather forecast)

Closest forecast is Fort McMurray Airport, 68.1 nm (126.1 km) ESE. Retrieved 2019/08/24 01:39 UTC (2 hours ago):

TAF CYMM 240038Z 2401/2413 15010G20KT P6SM -SHRA BKN020 OVC080 TEMPO 2401/2403 P6SM NSW FEW020 BKN080 FM240300 09008KT P6SM BKN030 TEMPO 2403/2413 4SM -SHRA BR BKN015 RMK FCST BASED ON AUTO OBS. NXT FCST BY 240700Z